createdAt,value
2017-09-21T00:02:17.548Z,20.25
2017-09-21T00:04:44.709Z,20.33
2017-09-21T00:07:11.142Z,20.41
2017-09-21T00:09:37.578Z,20.40
2017-09-21T00:12:04.013Z,20.38
2017-09-21T00:14:30.537Z,20.30
2017-09-21T00:16:56.988Z,20.26
2017-09-21T00:19:23.423Z,20.21
2017-09-21T00:21:50.564Z,20.15
2017-09-21T00:24:17.111Z,20.11
2017-09-21T00:26:43.544Z,20.15
2017-09-21T00:29:09.979Z,20.15
2017-09-21T00:31:36.413Z,20.16
2017-09-21T00:34:02.958Z,20.19
2017-09-21T00:36:29.387Z,20.26
2017-09-21T00:38:56.540Z,20.18
2017-09-21T00:41:22.974Z,20.03
2017-09-21T00:43:49.512Z,19.85
2017-09-21T00:46:15.946Z,19.75
2017-09-21T00:48:42.379Z,19.64
2017-09-21T00:51:08.762Z,19.63
2017-09-21T00:53:35.249Z,19.55
2017-09-21T00:56:02.401Z,19.52
2017-09-21T00:58:28.776Z,19.38
2017-09-21T01:00:55.220Z,19.17
2017-09-21T01:03:21.706Z,19.13
2017-09-21T01:05:48.141Z,19.08
2017-09-21T01:08:14.575Z,19.03
2017-09-21T01:10:40.991Z,18.87
2017-09-21T01:13:08.162Z,18.73
2017-09-21T01:15:34.598Z,18.67
2017-09-21T01:18:01.032Z,18.80
2017-09-21T01:20:27.570Z,18.95
2017-09-21T01:22:54.108Z,19.01
2017-09-21T01:25:20.541Z,19.05
2017-09-21T01:27:46.976Z,19.04
2017-09-21T01:30:14.131Z,18.98
2017-09-21T01:32:40.668Z,18.77
2017-09-21T01:35:07.112Z,18.82
2017-09-21T01:37:33.535Z,18.85
2017-09-21T01:39:59.971Z,18.84
2017-09-21T01:42:26.433Z,18.89
2017-09-21T01:44:52.839Z,18.92
2017-09-21T01:47:19.991Z,18.93
2017-09-21T01:49:46.427Z,18.96
2017-09-21T01:52:12.862Z,18.95
2017-09-21T01:54:39.243Z,18.93
2017-09-21T01:57:05.629Z,18.95
2017-09-21T01:59:32.065Z,18.88
2017-09-21T02:01:58.499Z,18.88
2017-09-21T02:04:25.651Z,18.78
2017-09-21T02:06:52.045Z,18.69
2017-09-21T02:09:18.521Z,18.35
2017-09-21T02:11:44.955Z,18.35
2017-09-21T02:14:11.493Z,18.45
2017-09-21T02:16:37.928Z,18.50
2017-09-21T02:19:04.370Z,18.40
2017-09-21T02:21:30.799Z,18.43
2017-09-21T02:23:57.234Z,18.48
2017-09-21T02:26:23.761Z,18.44
2017-09-21T02:28:50.823Z,18.31
2017-09-21T02:31:17.200Z,18.18
2017-09-21T02:33:43.692Z,18.27
2017-09-21T02:36:10.080Z,18.23
2017-09-21T02:38:36.551Z,18.34
2017-09-21T02:41:02.995Z,18.41
2017-09-21T02:43:29.535Z,18.39
2017-09-21T02:45:56.684Z,18.42
2017-09-21T02:48:23.221Z,18.44
2017-09-21T02:50:49.655Z,18.44
2017-09-21T02:53:16.192Z,18.41
2017-09-21T02:55:42.627Z,18.38
2017-09-21T02:58:09.061Z,18.27
2017-09-21T03:00:35.498Z,18.09
2017-09-21T03:03:02.751Z,17.81
2017-09-21T03:05:29.154Z,17.73
2017-09-21T03:07:55.611Z,17.86
2017-09-21T03:10:22.056Z,17.92
2017-09-21T03:12:48.593Z,17.81
2017-09-21T03:15:15.015Z,17.79
2017-09-21T03:17:41.462Z,17.78
2017-09-21T03:20:08.615Z,17.69
2017-09-21T03:22:35.153Z,17.61
2017-09-21T03:25:01.587Z,17.55
2017-09-21T03:27:28.022Z,17.54
2017-09-21T03:29:54.457Z,17.64
2017-09-21T03:32:20.891Z,17.78
2017-09-21T03:34:47.280Z,17.84
2017-09-21T03:37:14.569Z,17.75
2017-09-21T03:39:41.015Z,17.63
2017-09-21T03:42:07.450Z,17.69
2017-09-21T03:44:33.988Z,17.76
2017-09-21T03:47:00.423Z,17.78
2017-09-21T03:49:26.857Z,17.79
2017-09-21T03:51:53.243Z,17.73
2017-09-21T03:54:20.341Z,17.68
2017-09-21T03:56:46.777Z,17.77
2017-09-21T03:59:13.213Z,17.93
2017-09-21T04:01:39.647Z,18.00
2017-09-21T04:04:06.184Z,17.89
2017-09-21T04:06:32.618Z,17.74
2017-09-21T04:08:59.056Z,17.76
2017-09-21T04:11:26.310Z,17.87
2017-09-21T04:13:52.845Z,18.01
2017-09-21T04:16:19.241Z,18.10
2017-09-21T04:18:45.717Z,18.18
2017-09-21T04:21:12.150Z,18.18
2017-09-21T04:23:38.687Z,18.06
2017-09-21T04:26:05.122Z,17.99
2017-09-21T04:28:32.375Z,18.09
2017-09-21T04:30:58.810Z,18.13
2017-09-21T04:33:25.348Z,18.16
2017-09-21T04:35:51.782Z,18.14
2017-09-21T04:38:18.320Z,18.10
2017-09-21T04:40:44.755Z,18.08
2017-09-21T04:43:11.254Z,18.08
2017-09-21T04:45:38.337Z,18.04
2017-09-21T04:48:04.777Z,17.87
2017-09-21T04:53:03.788Z,17.94
2017-09-21T04:55:30.280Z,18.01
2017-09-21T04:57:56.749Z,18.01
2017-09-21T05:00:23.199Z,18.02
2017-09-21T05:02:49.633Z,18.06
2017-09-21T05:05:16.068Z,18.08
2017-09-21T05:07:42.604Z,18.03
2017-09-21T05:10:09.040Z,18.10
2017-09-21T05:12:35.577Z,18.13
2017-09-21T05:15:02.013Z,18.17
2017-09-21T05:17:28.446Z,18.18
2017-09-21T05:19:54.985Z,18.21
2017-09-21T05:22:21.418Z,18.15
2017-09-21T05:24:47.853Z,18.02
2017-09-21T05:27:14.288Z,18.05
2017-09-21T05:29:41.543Z,18.23
2017-09-21T05:32:07.978Z,18.35
2017-09-21T05:34:34.512Z,18.41
2017-09-21T05:37:00.950Z,18.51
2017-09-21T05:39:27.384Z,18.68
2017-09-21T05:41:53.820Z,18.83
2017-09-21T05:44:20.255Z,18.89
2017-09-21T05:46:47.508Z,18.89
2017-09-21T05:49:13.944Z,18.94
2017-09-21T05:51:40.378Z,18.94
2017-09-21T05:54:07.326Z,18.89
2017-09-21T05:56:33.762Z,18.81
2017-09-21T05:59:00.195Z,18.80
2017-09-21T06:01:26.636Z,18.82
2017-09-21T06:03:53.167Z,18.80
2017-09-21T06:06:19.604Z,18.73
2017-09-21T06:08:46.039Z,18.72
2017-09-21T06:11:12.574Z,18.80
2017-09-21T06:13:39.068Z,18.92
2017-09-21T06:16:05.547Z,19.01
2017-09-21T06:18:32.016Z,19.12
2017-09-21T06:20:58.524Z,19.19
2017-09-21T06:23:25.057Z,19.12
2017-09-21T06:25:51.492Z,19.19
2017-09-21T06:28:17.939Z,19.21
2017-09-21T06:30:45.078Z,19.23
2017-09-21T06:33:11.615Z,19.17
2017-09-21T06:35:38.050Z,19.22
2017-09-21T06:38:04.587Z,19.17
2017-09-21T06:40:31.024Z,19.29
2017-09-21T06:42:57.553Z,19.35
2017-09-21T06:45:23.945Z,19.30
2017-09-21T06:47:50.413Z,19.30
2017-09-21T06:50:16.864Z,19.26
2017-09-21T06:52:43.405Z,19.48
2017-09-21T06:55:10.457Z,19.61
2017-09-21T06:57:37.256Z,19.57
2017-09-21T07:00:03.731Z,19.65
2017-09-21T07:02:30.165Z,19.71
2017-09-21T07:04:56.600Z,19.72
2017-09-21T07:07:23.089Z,19.52
2017-09-21T07:09:49.575Z,19.45
2017-09-21T07:12:16.009Z,19.53
2017-09-21T07:14:42.551Z,19.48
2017-09-21T07:17:08.980Z,19.41
2017-09-21T07:19:35.415Z,19.46
2017-09-21T07:22:01.850Z,19.77
2017-09-21T07:24:28.386Z,20.10
2017-09-21T07:26:54.822Z,20.33
2017-09-21T07:29:21.182Z,20.03
2017-09-21T07:31:47.543Z,19.89
2017-09-21T07:34:14.022Z,19.93
2017-09-21T07:36:40.560Z,19.71
2017-09-21T07:39:06.998Z,19.86
2017-09-21T07:41:33.426Z,20.02
2017-09-21T07:43:59.866Z,20.13
2017-09-21T07:46:26.301Z,20.11
2017-09-21T07:48:52.737Z,20.09
2017-09-21T07:51:19.171Z,20.21
2017-09-21T07:53:45.655Z,20.20
2017-09-21T07:56:12.130Z,20.16
2017-09-21T07:58:38.578Z,20.34
2017-09-21T08:01:05.953Z,20.33
2017-09-21T08:03:32.472Z,20.37
2017-09-21T08:05:58.906Z,20.38
2017-09-21T08:08:26.058Z,20.41
2017-09-21T08:10:52.595Z,20.31
2017-09-21T08:13:19.134Z,20.22
2017-09-21T08:15:45.965Z,20.13
2017-09-21T08:18:12.413Z,20.28
2017-09-21T08:20:38.847Z,20.30
2017-09-21T08:23:05.486Z,20.42
2017-09-21T08:25:31.921Z,20.50
2017-09-21T08:27:59.380Z,20.49
2017-09-21T08:30:25.816Z,20.70
2017-09-21T08:32:52.352Z,20.83
2017-09-21T08:35:19.095Z,20.93
2017-09-21T08:37:46.168Z,20.95
2017-09-21T08:40:12.580Z,20.95
2017-09-21T08:42:39.117Z,21.12
2017-09-21T08:45:05.859Z,21.43
2017-09-21T08:47:32.293Z,21.43
2017-09-21T08:49:58.733Z,21.29
2017-09-21T08:52:25.164Z,21.31
2017-09-21T08:54:51.599Z,21.51
2017-09-21T08:57:18.339Z,21.51
2017-09-21T08:59:44.779Z,21.61
2017-09-21T09:02:11.312Z,21.60
2017-09-21T09:04:37.748Z,21.34
2017-09-21T09:07:04.369Z,21.42
2017-09-21T09:09:30.821Z,21.45
2017-09-21T09:11:58.280Z,21.41
2017-09-21T09:14:24.818Z,21.40
2017-09-21T09:16:51.458Z,21.54
2017-09-21T09:19:17.892Z,21.63
2017-09-21T09:21:45.045Z,21.67
2017-09-21T09:24:11.586Z,21.94
2017-09-21T09:26:38.017Z,22.10
2017-09-21T09:29:04.861Z,22.04
2017-09-21T09:31:31.296Z,21.80
2017-09-21T09:33:57.834Z,21.90
2017-09-21T09:36:24.372Z,22.23
2017-09-21T09:38:50.810Z,22.58
2017-09-21T09:41:17.191Z,22.60
2017-09-21T09:43:43.881Z,22.41
2017-09-21T09:46:10.266Z,22.06
2017-09-21T09:48:36.744Z,21.77
2017-09-21T09:51:04.039Z,21.68
2017-09-21T09:53:31.667Z,21.83
2017-09-21T09:55:58.102Z,21.75
2017-09-21T09:58:26.753Z,21.79
2017-09-21T10:00:53.178Z,21.77
2017-09-21T10:03:19.966Z,21.99
2017-09-21T10:05:46.591Z,22.36
2017-09-21T10:08:13.034Z,22.66
2017-09-21T10:10:39.478Z,22.65
2017-09-21T10:13:06.015Z,22.78
2017-09-21T10:15:32.552Z,22.71
2017-09-21T10:17:59.293Z,22.56
2017-09-21T10:20:25.729Z,22.70
2017-09-21T10:22:53.289Z,22.69
2017-09-21T10:25:19.729Z,22.66
2017-09-21T10:27:46.251Z,22.88
2017-09-21T10:30:12.698Z,22.85
2017-09-21T10:32:39.183Z,22.62
2017-09-21T10:35:05.567Z,22.58
2017-09-21T10:37:32.002Z,22.54
2017-09-21T10:39:58.540Z,22.48
2017-09-21T10:42:24.976Z,22.53
2017-09-21T10:44:51.409Z,22.76
2017-09-21T10:47:18.051Z,23.33
2017-09-21T10:49:44.587Z,24.05
2017-09-21T10:52:11.020Z,25.07
2017-09-21T10:54:37.455Z,25.65
2017-09-21T10:57:04.524Z,25.44
2017-09-21T10:59:31.144Z,24.99
2017-09-21T11:01:57.580Z,24.62
2017-09-21T11:04:24.529Z,24.43
2017-09-21T11:06:51.065Z,24.06
2017-09-21T11:09:17.499Z,23.74
2017-09-21T11:11:44.504Z,23.85
2017-09-21T11:14:11.085Z,23.87
2017-09-21T11:16:37.520Z,23.77
2017-09-21T11:19:03.955Z,23.99
2017-09-21T11:21:31.166Z,24.30
2017-09-21T11:23:57.634Z,24.83
2017-09-21T11:26:24.078Z,24.75
2017-09-21T11:28:51.320Z,24.38
2017-09-21T11:31:18.486Z,24.24
2017-09-21T11:33:45.021Z,24.49
2017-09-21T11:36:11.463Z,24.68
2017-09-21T11:43:44.281Z,24.90
2017-09-21T11:46:10.713Z,24.91
2017-09-21T11:48:37.138Z,24.96
2017-09-21T11:51:03.582Z,24.79
2017-09-21T11:53:30.537Z,24.38
2017-09-21T11:55:57.065Z,24.00
2017-09-21T11:58:23.581Z,23.80
2017-09-21T12:00:50.145Z,23.73
2017-09-21T12:03:16.679Z,23.60
2017-09-21T12:05:43.114Z,23.40
2017-09-21T12:08:09.501Z,23.50
2017-09-21T12:10:35.984Z,23.58
2017-09-21T12:13:02.522Z,23.48
2017-09-21T12:15:29.129Z,23.44
2017-09-21T12:17:55.597Z,23.22
2017-09-21T12:20:22.542Z,23.15
2017-09-21T12:22:49.080Z,23.03
2017-09-21T12:25:15.720Z,23.56
2017-09-21T12:27:42.155Z,24.82
2017-09-21T12:30:08.694Z,26.49
2017-09-21T12:32:35.435Z,27.22
2017-09-21T12:35:01.870Z,27.24
2017-09-21T12:37:28.267Z,26.92
2017-09-21T12:39:55.047Z,26.20
2017-09-21T12:42:21.584Z,25.52
2017-09-21T12:44:48.119Z,25.02
2017-09-21T12:47:15.684Z,24.76
2017-09-21T12:49:42.219Z,24.46
2017-09-21T12:52:08.764Z,24.35
2017-09-21T12:54:35.396Z,24.25
2017-09-21T12:57:01.787Z,23.89
2017-09-21T12:59:28.251Z,23.80
2017-09-21T13:01:56.083Z,23.76
2017-09-21T13:04:23.901Z,23.87
2017-09-21T13:06:50.438Z,23.86
2017-09-21T13:09:17.079Z,23.76
2017-09-21T13:11:43.512Z,23.84
2017-09-21T13:14:10.153Z,23.64
2017-09-21T13:16:36.690Z,23.63
2017-09-21T13:19:03.184Z,23.83
2017-09-21T13:21:30.075Z,23.96
2017-09-21T13:23:57.164Z,24.04
2017-09-21T13:26:24.069Z,23.92
2017-09-21T13:28:50.818Z,23.85
2017-09-21T13:31:17.655Z,23.66
2017-09-21T13:33:44.191Z,23.56
2017-09-21T13:36:10.729Z,23.58
2017-09-21T13:38:37.470Z,23.53
2017-09-21T13:41:03.906Z,23.35
2017-09-21T13:43:30.392Z,23.27
2017-09-21T13:45:56.984Z,23.30
2017-09-21T13:48:23.414Z,24.10
2017-09-21T13:50:49.850Z,25.15
2017-09-21T13:53:17.124Z,25.39
2017-09-21T13:55:43.744Z,26.03
2017-09-21T13:58:10.282Z,25.80
2017-09-21T14:00:37.331Z,26.52
2017-09-21T14:03:03.974Z,26.16
2017-09-21T14:05:31.327Z,25.66
2017-09-21T14:07:58.171Z,25.11
2017-09-21T14:10:24.951Z,24.54
2017-09-21T14:12:51.555Z,24.23
2017-09-21T14:15:19.321Z,23.99
2017-09-21T14:17:46.137Z,23.77
2017-09-21T14:20:12.787Z,23.55
2017-09-21T14:22:39.955Z,23.34
2017-09-21T14:25:06.696Z,23.09
2017-09-21T14:27:33.391Z,22.88
2017-09-21T14:29:59.772Z,22.73
2017-09-21T14:32:26.449Z,22.80
2017-09-21T14:34:53.051Z,22.71
2017-09-21T14:37:19.691Z,22.65
2017-09-21T14:39:46.844Z,22.55
2017-09-21T14:42:13.671Z,22.50
2017-09-21T14:44:40.067Z,22.48
2017-09-21T14:47:06.657Z,22.36
2017-09-21T14:49:33.073Z,22.32
2017-09-21T14:51:59.527Z,22.22
2017-09-21T14:54:26.476Z,22.23
2017-09-21T14:56:52.910Z,22.12
2017-09-21T14:59:19.345Z,22.09
2017-09-21T15:01:46.292Z,22.02
2017-09-21T15:04:12.829Z,21.97
2017-09-21T15:06:39.264Z,22.02
2017-09-21T15:09:06.418Z,21.95
2017-09-21T15:11:32.864Z,21.89
2017-09-21T15:13:59.393Z,21.87
2017-09-21T15:16:25.856Z,21.80
2017-09-21T15:18:52.337Z,21.78
2017-09-21T15:21:18.797Z,21.85
2017-09-21T15:23:45.332Z,21.77
2017-09-21T15:26:12.382Z,21.66
2017-09-21T15:28:38.820Z,21.72
2017-09-21T15:31:05.255Z,21.72
2017-09-21T15:33:31.791Z,21.61
2017-09-21T15:35:58.231Z,21.54
2017-09-21T15:38:24.660Z,21.39
2017-09-21T15:40:51.158Z,21.16
2017-09-21T15:43:18.349Z,21.02
2017-09-21T15:45:44.783Z,20.89
2017-09-21T15:48:11.218Z,20.69
2017-09-21T15:50:37.653Z,20.52
2017-09-21T15:53:04.190Z,20.43
2017-09-21T15:55:30.630Z,20.39
2017-09-21T15:57:57.060Z,20.34
2017-09-21T16:00:24.165Z,20.31
2017-09-21T16:02:50.632Z,20.24
2017-09-21T16:05:17.074Z,20.17
2017-09-21T16:07:43.529Z,20.05
2017-09-21T16:10:09.952Z,19.86
2017-09-21T16:12:36.496Z,19.85
2017-09-21T16:15:02.927Z,19.91
2017-09-21T16:17:30.127Z,19.79
2017-09-21T16:19:56.612Z,19.72
2017-09-21T16:22:23.048Z,19.72
2017-09-21T16:24:49.485Z,19.76
2017-09-21T16:27:15.917Z,19.73
2017-09-21T16:29:42.351Z,19.69
2017-09-21T16:32:08.787Z,19.63
2017-09-21T16:34:36.041Z,19.61
2017-09-21T16:37:02.475Z,19.50
2017-09-21T16:39:28.911Z,19.35
2017-09-21T16:41:55.347Z,19.39
2017-09-21T16:44:21.781Z,19.46
2017-09-21T16:46:48.217Z,19.52
2017-09-21T16:49:14.651Z,19.49
2017-09-21T16:51:41.803Z,19.48
2017-09-21T16:54:08.345Z,19.33
2017-09-21T16:56:34.775Z,19.12
2017-09-21T16:59:01.186Z,19.15
2017-09-21T17:01:27.646Z,19.28
2017-09-21T17:03:54.489Z,19.33
2017-09-21T17:06:20.923Z,19.38
2017-09-21T17:08:47.358Z,19.37
2017-09-21T17:11:14.099Z,19.43
2017-09-21T17:13:40.536Z,19.45
2017-09-21T17:16:06.971Z,19.42
2017-09-21T17:18:33.405Z,19.34
2017-09-21T17:20:59.846Z,19.30
2017-09-21T17:23:26.689Z,19.16
2017-09-21T17:25:53.044Z,19.19
2017-09-21T17:28:19.452Z,19.18
2017-09-21T17:30:45.887Z,19.12
2017-09-21T17:33:12.425Z,19.05
2017-09-21T17:35:39.576Z,18.96
2017-09-21T17:38:06.011Z,18.89
2017-09-21T17:40:32.446Z,18.88
2017-09-21T17:42:58.983Z,18.81
2017-09-21T17:45:25.419Z,18.71
2017-09-21T17:47:51.936Z,18.66
2017-09-21T17:50:20.205Z,18.64
2017-09-21T17:52:46.771Z,18.63
2017-09-21T17:55:13.205Z,18.66
2017-09-21T17:57:39.743Z,18.70
2017-09-21T18:00:06.179Z,18.68
2017-09-21T18:02:32.716Z,18.60
2017-09-21T18:04:59.765Z,18.55
2017-09-21T18:07:26.199Z,18.51
2017-09-21T18:09:52.634Z,18.57
2017-09-21T18:12:19.377Z,18.61
2017-09-21T18:14:45.812Z,18.64
2017-09-21T18:17:12.247Z,18.68
2017-09-21T18:19:38.682Z,18.73
2017-09-21T18:22:05.074Z,18.70
2017-09-21T18:24:31.449Z,18.66
2017-09-21T18:26:57.883Z,18.73
2017-09-21T18:29:25.094Z,18.77
2017-09-21T18:31:51.470Z,18.77
2017-09-21T18:34:18.008Z,18.67
2017-09-21T18:36:44.442Z,18.57
2017-09-21T18:39:10.828Z,18.67
2017-09-21T18:41:37.311Z,18.70
2017-09-21T18:44:03.746Z,18.71
2017-09-21T18:46:30.900Z,18.73
2017-09-21T18:48:57.334Z,18.73
2017-09-21T18:51:23.768Z,18.68
2017-09-21T18:53:50.305Z,18.50
2017-09-21T18:56:16.741Z,18.46
2017-09-21T18:58:43.143Z,18.42
2017-09-21T19:01:09.611Z,18.23
2017-09-21T19:03:36.762Z,18.20
2017-09-21T19:06:03.196Z,18.12
2017-09-21T19:08:29.616Z,18.05
2017-09-21T19:10:56.067Z,18.07
2017-09-21T19:13:22.604Z,18.01
2017-09-21T19:15:49.039Z,18.02
2017-09-21T19:18:15.475Z,18.12
2017-09-21T19:20:42.625Z,18.00
2017-09-21T19:23:09.111Z,17.89
2017-09-21T19:25:35.495Z,17.68
2017-09-21T19:28:02.032Z,17.62
2017-09-21T19:30:28.467Z,17.61
2017-09-21T19:32:55.010Z,17.59
2017-09-21T19:35:21.440Z,17.60
2017-09-21T19:37:48.591Z,17.75
2017-09-21T19:40:15.027Z,17.83
2017-09-21T19:42:41.563Z,17.88
2017-09-21T19:45:07.998Z,17.94
2017-09-21T19:47:34.436Z,17.99
2017-09-21T19:50:00.873Z,18.03
2017-09-21T19:52:27.303Z,17.97
2017-09-21T19:54:54.456Z,17.93
2017-09-21T19:57:20.889Z,17.88
2017-09-21T19:59:47.271Z,17.89
2017-09-21T20:02:13.750Z,17.88
2017-09-21T20:04:40.144Z,17.89
2017-09-21T20:07:06.631Z,17.81
2017-09-21T20:09:33.016Z,17.76
2017-09-21T20:12:00.217Z,17.73
2017-09-21T20:14:28.291Z,17.64
2017-09-21T20:16:58.470Z,17.64
2017-09-21T20:19:25.099Z,17.68
2017-09-21T20:21:51.495Z,17.74
2017-09-21T20:24:18.025Z,17.66
2017-09-21T20:26:44.561Z,17.59
2017-09-21T20:29:10.948Z,17.56
2017-09-21T20:31:37.433Z,17.59
2017-09-21T20:34:03.968Z,17.59
2017-09-21T20:36:30.404Z,17.60
2017-09-21T20:38:56.838Z,17.59
2017-09-21T20:41:23.263Z,17.59
2017-09-21T20:43:49.713Z,17.60
2017-09-21T20:46:16.141Z,17.65
2017-09-21T20:48:42.577Z,17.65
2017-09-21T20:51:09.012Z,17.70
2017-09-21T20:53:35.548Z,17.72
2017-09-21T20:56:02.700Z,17.74
2017-09-21T20:58:29.071Z,17.77
2017-09-21T21:00:55.467Z,17.76
2017-09-21T21:03:22.004Z,17.57
2017-09-21T21:05:48.658Z,17.49
2017-09-21T21:08:15.028Z,17.55
2017-09-21T21:10:41.514Z,17.59
2017-09-21T21:13:08.670Z,17.49
2017-09-21T21:15:35.057Z,17.44
2017-09-21T21:18:01.536Z,17.35
2017-09-21T21:20:27.969Z,17.41
2017-09-21T21:22:54.508Z,17.35
2017-09-21T21:25:20.942Z,17.33
2017-09-21T21:27:47.377Z,17.33
2017-09-21T21:30:14.631Z,17.35
2017-09-21T21:32:41.170Z,17.29
2017-09-21T21:35:08.218Z,17.22
2017-09-21T21:37:34.653Z,17.02
2017-09-21T21:40:01.191Z,16.94
2017-09-21T21:42:27.625Z,16.90
2017-09-21T21:44:54.059Z,16.88
2017-09-21T21:47:21.212Z,16.75
2017-09-21T21:49:47.646Z,16.72
2017-09-21T21:52:14.081Z,16.77
2017-09-21T21:54:40.468Z,16.77
2017-09-21T21:57:06.948Z,16.80
2017-09-21T21:59:33.386Z,16.71
2017-09-21T22:01:59.822Z,16.66
2017-09-21T22:04:27.025Z,16.62
2017-09-21T22:06:53.407Z,16.58
2017-09-21T22:09:19.843Z,16.56
2017-09-21T22:11:46.377Z,16.45
2017-09-21T22:14:12.917Z,16.40
2017-09-21T22:16:39.354Z,16.37
2017-09-21T22:19:05.788Z,16.41
2017-09-21T22:21:32.991Z,16.34
2017-09-21T22:23:59.475Z,16.34
2017-09-21T22:26:25.910Z,16.30
2017-09-21T22:28:52.352Z,16.25
2017-09-21T22:31:18.782Z,16.24
2017-09-21T22:33:45.276Z,16.22
2017-09-21T22:36:11.651Z,16.21
2017-09-21T22:38:39.018Z,16.33
2017-09-21T22:41:05.442Z,16.31
2017-09-21T22:43:31.980Z,16.21
2017-09-21T22:45:58.414Z,16.04
2017-09-21T22:48:24.849Z,16.04
2017-09-21T22:50:51.284Z,16.02
2017-09-21T22:53:17.721Z,16.05
2017-09-21T22:55:44.871Z,16.17
2017-09-21T22:58:11.305Z,16.15
2017-09-21T23:00:37.740Z,16.11
2017-09-21T23:03:04.277Z,16.14
2017-09-21T23:05:30.711Z,16.10
2017-09-21T23:07:57.147Z,16.12
2017-09-21T23:10:23.582Z,16.02
2017-09-21T23:12:50.735Z,16.02
2017-09-21T23:15:17.170Z,16.09
2017-09-21T23:17:43.605Z,16.02
2017-09-21T23:20:10.038Z,15.99
2017-09-21T23:22:36.575Z,16.04
2017-09-21T23:25:03.011Z,15.97
2017-09-21T23:27:29.445Z,16.01
2017-09-21T23:29:56.699Z,16.09
2017-09-21T23:32:23.135Z,16.16
2017-09-21T23:34:49.570Z,16.25
2017-09-21T23:37:16.106Z,16.35
2017-09-21T23:39:42.542Z,16.43
2017-09-21T23:42:08.978Z,16.47
2017-09-21T23:44:35.513Z,16.48
2017-09-21T23:47:02.562Z,16.42
2017-09-21T23:49:28.998Z,16.38
2017-09-21T23:51:55.438Z,16.24
2017-09-21T23:54:21.960Z,16.18
2017-09-21T23:56:48.410Z,16.10
2017-09-21T23:59:14.842Z,16.08
